createdAt,value
2018-09-10T00:00:18.617Z,12.90
2018-09-10T00:05:22.445Z,12.70
2018-09-10T00:10:26.052Z,12.60
2018-09-10T00:15:29.778Z,12.50
2018-09-10T00:20:33.349Z,12.50
2018-09-10T00:25:36.925Z,12.40
2018-09-10T00:30:40.510Z,12.40
2018-09-10T00:35:44.088Z,12.30
2018-09-10T00:40:47.819Z,12.80
2018-09-10T00:45:51.367Z,12.60
2018-09-10T00:50:54.994Z,12.30
2018-09-10T00:55:58.614Z,12.10
2018-09-10T01:01:02.329Z,12.10
2018-09-10T01:06:05.926Z,12.50
2018-09-10T01:11:10.554Z,12.30
2018-09-10T01:16:14.177Z,12.20
2018-09-10T01:21:17.698Z,12.10
2018-09-10T01:26:21.289Z,11.90
2018-09-10T01:31:24.835Z,11.90
2018-09-10T01:36:28.410Z,11.80
2018-09-10T01:41:32.067Z,11.70
2018-09-10T01:46:35.622Z,11.90
2018-09-10T01:51:39.212Z,11.80
2018-09-10T01:56:42.735Z,11.60
2018-09-10T02:01:46.333Z,11.90
2018-09-10T02:06:49.993Z,11.50
2018-09-10T02:11:54.585Z,11.50
2018-09-10T02:16:58.252Z,11.60
2018-09-10T02:22:01.745Z,12.10
2018-09-10T02:27:05.311Z,11.90
2018-09-10T02:32:09.015Z,11.80
2018-09-10T02:37:12.551Z,11.90
2018-09-10T02:42:22.755Z,12.20
2018-09-10T02:47:26.296Z,11.90
2018-09-10T02:52:29.862Z,11.70
2018-09-10T02:57:34.538Z,11.70
2018-09-10T03:02:38.818Z,11.60
2018-09-10T03:07:42.480Z,11.50
2018-09-10T03:12:46.067Z,11.50
2018-09-10T03:17:49.889Z,11.70
2018-09-10T03:22:53.367Z,11.80
2018-09-10T03:27:56.911Z,12.00
2018-09-10T03:33:00.482Z,11.90
2018-09-10T03:38:04.138Z,11.80
2018-09-10T03:43:07.655Z,11.70
2018-09-10T03:48:11.291Z,11.50
2018-09-10T03:53:14.814Z,11.50
2018-09-10T03:58:18.342Z,11.40
2018-09-10T04:03:23.023Z,11.30
2018-09-10T04:08:26.593Z,11.40
2018-09-10T04:13:30.175Z,11.30
2018-09-10T04:18:33.788Z,11.20
2018-09-10T04:23:38.399Z,11.30
2018-09-10T04:28:44.000Z,11.20
2018-09-10T04:33:47.570Z,11.20
2018-09-10T04:38:51.090Z,11.20
2018-09-10T04:43:58.412Z,11.20
2018-09-10T04:49:01.942Z,11.10
2018-09-10T04:54:09.550Z,11.00
2018-09-10T04:59:13.134Z,11.20
2018-09-10T05:04:18.767Z,11.20
2018-09-10T05:09:22.406Z,11.10
2018-09-10T05:14:25.930Z,11.10
2018-09-10T05:19:29.633Z,11.40
2018-09-10T05:24:33.437Z,11.50
2018-09-10T05:29:37.196Z,11.60
2018-09-10T05:34:41.898Z,11.60
2018-09-10T05:39:45.437Z,11.80
2018-09-10T05:44:48.962Z,12.10
2018-09-10T05:49:52.554Z,12.40
2018-09-10T05:54:56.161Z,12.40
2018-09-10T05:59:59.690Z,12.50
2018-09-10T06:05:03.298Z,12.80
2018-09-10T06:10:06.926Z,13.00
2018-09-10T06:15:10.511Z,13.80
2018-09-10T06:20:14.042Z,13.20
2018-09-10T06:25:17.562Z,12.90
2018-09-10T06:30:21.293Z,12.80
2018-09-10T06:35:24.802Z,13.20
2018-09-10T06:40:28.550Z,13.10
2018-09-10T06:45:36.472Z,13.10
2018-09-10T06:50:40.058Z,13.00
2018-09-10T06:55:43.769Z,13.80
2018-09-10T07:00:47.365Z,14.30
2018-09-10T07:05:51.031Z,15.00
2018-09-10T07:10:54.694Z,15.50
2018-09-10T07:15:58.291Z,15.70
2018-09-10T07:21:02.116Z,15.50
2018-09-10T07:26:05.727Z,15.90
2018-09-10T07:31:09.337Z,16.00
2018-09-10T07:36:12.847Z,15.90
2018-09-10T07:41:16.450Z,16.00
2018-09-10T07:46:20.378Z,16.10
2018-09-10T07:51:23.958Z,16.10
2018-09-10T07:56:27.578Z,16.10
2018-09-10T08:01:31.159Z,16.20
2018-09-10T08:06:34.790Z,16.00
2018-09-10T08:11:38.402Z,16.00
2018-09-10T08:16:42.090Z,16.30
2018-09-10T08:21:45.583Z,16.50
2018-09-10T08:26:57.380Z,17.20
2018-09-10T08:32:00.937Z,17.90
2018-09-10T08:37:05.236Z,17.70
2018-09-10T08:42:09.076Z,17.60
2018-09-10T08:47:19.217Z,18.10
2018-09-10T08:52:22.922Z,18.60
2018-09-10T08:57:26.513Z,18.50
2018-09-10T09:02:30.157Z,18.90
2018-09-10T09:07:34.727Z,19.40
2018-09-10T09:12:38.365Z,20.10
2018-09-10T09:17:41.906Z,20.30
2018-09-10T09:22:46.499Z,21.40
2018-09-10T09:27:50.086Z,21.50
2018-09-10T09:32:58.496Z,21.30
2018-09-10T09:38:07.548Z,22.10
2018-09-10T09:43:16.443Z,21.60
2018-09-10T09:48:20.038Z,21.40
2018-09-10T09:53:23.681Z,22.20
2018-09-10T09:58:27.201Z,23.00
2018-09-10T10:03:47.914Z,23.10
2018-09-10T10:08:51.557Z,23.50
2018-09-10T10:13:55.147Z,24.30
2018-09-10T10:18:58.697Z,24.70
2018-09-10T10:24:04.158Z,24.40
2018-09-10T10:29:07.752Z,24.50
2018-09-10T10:34:11.308Z,26.20
2018-09-10T10:39:14.829Z,28.60
2018-09-10T10:44:18.493Z,29.50
2018-09-10T10:49:22.022Z,29.70
2018-09-10T10:54:25.538Z,30.20
2018-09-10T10:59:29.170Z,28.50
2018-09-10T11:04:32.707Z,28.10
2018-09-10T11:09:36.318Z,26.90
2018-09-10T11:14:39.992Z,26.00
2018-09-10T11:19:44.612Z,26.30
2018-09-10T11:24:48.286Z,26.40
2018-09-10T11:29:51.984Z,26.20
2018-09-10T11:34:56.010Z,26.50
2018-09-10T11:39:59.730Z,25.90
2018-09-10T11:45:03.371Z,26.30
2018-09-10T11:50:10.663Z,26.00
2018-09-10T11:55:14.294Z,25.90
2018-09-10T12:00:17.898Z,26.20
2018-09-10T12:05:21.454Z,25.50
2018-09-10T12:10:26.452Z,25.70
2018-09-10T12:15:30.392Z,25.40
2018-09-10T12:20:34.015Z,25.50
2018-09-10T12:25:37.622Z,25.60
2018-09-10T12:30:41.167Z,25.50
2018-09-10T12:35:44.750Z,25.20
2018-09-10T12:40:53.670Z,25.10
2018-09-10T12:45:57.297Z,24.80
2018-09-10T12:51:09.070Z,23.40
2018-09-10T12:56:12.634Z,22.80
2018-09-10T13:01:19.966Z,22.60
2018-09-10T13:06:23.580Z,23.40
2018-09-10T13:11:28.247Z,24.20
2018-09-10T13:16:31.962Z,24.80
2018-09-10T13:21:41.567Z,25.20
2018-09-10T13:26:45.482Z,25.40
2018-09-10T13:31:55.830Z,24.70
2018-09-10T13:36:59.467Z,24.50
2018-09-10T13:42:03.012Z,23.50
2018-09-10T13:47:06.662Z,22.70
2018-09-10T13:52:10.535Z,22.20
2018-09-10T13:57:14.111Z,22.10
2018-09-10T14:02:19.874Z,22.10
2018-09-10T14:07:27.345Z,22.00
2018-09-10T14:12:31.056Z,21.90
2018-09-10T14:17:34.711Z,22.00
2018-09-10T14:22:38.398Z,22.20
2018-09-10T14:27:42.280Z,22.00
2018-09-10T14:32:45.894Z,21.80
2018-09-10T14:38:02.557Z,21.80
2018-09-10T14:43:06.356Z,21.80
2018-09-10T14:48:09.910Z,21.90
2018-09-10T14:53:13.582Z,21.90
2018-09-10T14:58:17.519Z,21.70
2018-09-10T15:03:21.172Z,21.60
2018-09-10T15:08:24.766Z,21.80
2018-09-10T15:13:28.386Z,21.80
2018-09-10T15:18:32.245Z,21.60
2018-09-10T15:23:35.874Z,21.80
2018-09-10T15:28:39.470Z,21.60
2018-09-10T15:33:46.562Z,21.60
2018-09-10T15:38:50.321Z,21.60
2018-09-10T15:43:54.032Z,21.50
2018-09-10T15:48:57.934Z,21.30
2018-09-10T15:54:01.514Z,21.30
2018-09-10T15:59:05.222Z,21.20
2018-09-10T16:04:08.870Z,21.20
2018-09-10T16:09:12.767Z,21.10
2018-09-10T16:14:16.413Z,21.10
2018-09-10T16:19:20.641Z,21.10
2018-09-10T16:24:24.225Z,20.90
2018-09-10T16:29:31.022Z,21.00
2018-09-10T16:34:34.661Z,21.10
2018-09-10T16:39:38.249Z,21.10
2018-09-10T16:44:41.891Z,21.00
2018-09-10T16:49:45.503Z,20.80
2018-09-10T16:54:49.271Z,20.90
2018-09-10T16:59:54.462Z,20.80
2018-09-10T17:04:58.205Z,20.70
2018-09-10T17:10:02.665Z,20.50
2018-09-10T17:15:06.627Z,20.50
2018-09-10T17:20:10.473Z,20.30
2018-09-10T17:25:14.201Z,20.30
2018-09-10T17:30:17.886Z,20.20
2018-09-10T17:35:21.563Z,20.20
2018-09-10T17:40:25.238Z,20.20
2018-09-10T17:45:28.853Z,20.20
2018-09-10T17:50:34.311Z,20.20
2018-09-10T17:55:38.981Z,20.20
2018-09-10T18:00:45.920Z,20.20
2018-09-10T18:05:49.639Z,20.10
2018-09-10T18:10:53.299Z,20.10
2018-09-10T18:15:57.966Z,20.00
2018-09-10T18:21:01.678Z,20.00
2018-09-10T18:26:05.438Z,19.80
2018-09-10T18:31:11.309Z,19.80
2018-09-10T18:36:20.209Z,19.70
2018-09-10T18:41:25.846Z,19.50
2018-09-10T18:46:31.263Z,19.40
2018-09-10T18:51:35.949Z,19.20
2018-09-10T18:56:40.794Z,19.10
2018-09-10T19:01:44.454Z,18.90
2018-09-10T19:06:49.265Z,18.80
2018-09-10T19:11:52.936Z,18.70
2018-09-10T19:16:57.499Z,18.50
2018-09-10T19:22:01.360Z,18.30
2018-09-10T19:27:06.112Z,18.00
2018-09-10T19:32:09.842Z,18.10
2018-09-10T19:37:13.714Z,18.00
2018-09-10T19:42:17.429Z,17.90
2018-09-10T19:47:27.360Z,18.00
2018-09-10T19:52:31.361Z,18.10
2018-09-10T19:57:35.328Z,18.30
2018-09-10T20:02:40.150Z,18.30
2018-09-10T20:07:44.138Z,17.90
2018-09-10T20:12:47.976Z,17.90
2018-09-10T20:17:52.966Z,17.70
2018-09-10T20:23:00.394Z,17.40
2018-09-10T20:28:04.171Z,17.20
2018-09-10T20:33:09.142Z,17.10
2018-09-10T20:38:12.930Z,17.00
2018-09-10T20:43:16.612Z,16.80
2018-09-10T20:48:21.448Z,17.00
2018-09-10T20:53:25.913Z,17.10
2018-09-10T20:58:29.728Z,16.50
2018-09-10T21:03:33.582Z,16.40
2018-09-10T21:08:42.633Z,16.30
2018-09-10T21:13:46.440Z,16.40
2018-09-10T21:18:51.166Z,17.10
2018-09-10T21:23:54.970Z,16.80
2018-09-10T21:28:58.507Z,16.00
2018-09-10T21:34:02.132Z,16.00
2018-09-10T21:39:10.142Z,16.40
2018-09-10T21:44:13.760Z,16.20
2018-09-10T21:49:17.323Z,15.80
2018-09-10T21:54:20.866Z,15.80
2018-09-10T21:59:24.417Z,15.70
2018-09-10T22:04:27.949Z,15.60
2018-09-10T22:09:31.520Z,15.60
2018-09-10T22:14:35.084Z,15.70
2018-09-10T22:19:48.899Z,15.40
2018-09-10T22:24:52.598Z,15.30
2018-09-10T22:29:56.169Z,15.30
2018-09-10T22:34:59.728Z,15.00
2018-09-10T22:40:03.294Z,14.90
2018-09-10T22:45:06.882Z,14.90
2018-09-10T22:50:10.526Z,15.60
2018-09-10T22:55:14.135Z,15.40
2018-09-10T23:00:17.714Z,15.00
2018-09-10T23:05:21.702Z,15.30
2018-09-10T23:10:25.319Z,14.90
2018-09-10T23:15:28.895Z,14.90
2018-09-10T23:20:32.444Z,14.60
2018-09-10T23:25:36.134Z,14.50
2018-09-10T23:30:39.726Z,14.60
2018-09-10T23:35:43.358Z,14.90
2018-09-10T23:40:46.945Z,14.50
2018-09-10T23:45:50.573Z,14.30
2018-09-10T23:50:54.166Z,14.50
2018-09-10T23:55:57.719Z,14.40
